Time;durP1;ratioP1;P1;durP2;ratioP2;P2;SDS_P1;SDS_P2;PMS_P1;PMS_P2;Temp;Humidity;BMP_temperature;BMP_pressure;BME280_temperature;BME280_humidity;BME280_pressure;Samples;Min_cycle;Max_cycle;Signal;HPM_P1;HPM_P2
2021/12/06 00:01:03;;;;;;;2.75;1.40;;;;;;;;;;5035712;28;20445;-74
2021/12/06 00:03:57;;;;;;;4.55;1.50;;;;;;;;;;5035934;28;20061;-74
2021/12/06 00:06:25;;;;;;;4.13;1.35;;;;;;;;;;5035603;28;20466;-74
2021/12/06 00:08:51;;;;;;;3.85;1.50;;;;;;;;;;5035675;28;20061;-74
2021/12/06 00:11:17;;;;;;;2.85;1.50;;;;;;;;;;5035717;28;20064;-73
2021/12/06 00:13:46;;;;;;;3.97;1.80;;;;;;;;;;5035591;28;20108;-73
2021/12/06 00:16:17;;;;;;;4.75;1.70;;;;;;;;;;5035687;28;20029;-74
2021/12/06 00:18:43;;;;;;;3.60;1.38;;;;;;;;;;5035687;28;20033;-74
2021/12/06 00:21:10;;;;;;;3.25;1.50;;;;;;;;;;5035332;28;20033;-74
2021/12/06 00:23:37;;;;;;;3.25;1.40;;;;;;;;;;5035626;28;20037;-73
2021/12/06 00:26:04;;;;;;;2.97;1.30;;;;;;;;;;5035386;28;20047;-74
2021/12/06 00:28:29;;;;;;;3.38;1.40;;;;;;;;;;5035400;28;20488;-72
2021/12/06 00:30:56;;;;;;;3.58;1.23;;;;;;;;;;5031439;28;20029;-74
2021/12/06 00:33:23;;;;;;;5.15;1.42;;;;;;;;;;5035574;28;20123;-73
2021/12/06 00:35:49;;;;;;;3.90;1.20;;;;;;;;;;5035203;28;20036;-73
2021/12/06 00:38:15;;;;;;;3.55;1.13;;;;;;;;;;5035094;28;20091;-73
2021/12/06 00:40:46;;;;;;;2.42;1.17;;;;;;;;;;5034894;28;20033;-74
2021/12/06 00:43:12;;;;;;;4.15;1.40;;;;;;;;;;5035189;28;20401;-75
2021/12/06 00:45:38;;;;;;;2.65;1.10;;;;;;;;;;5035000;28;20021;-74
2021/12/06 00:48:05;;;;;;;2.95;1.15;;;;;;;;;;5034913;28;20037;-76
2021/12/06 00:50:33;;;;;;;2.60;1.17;;;;;;;;;;5034645;28;20108;-73
2021/12/06 00:52:59;;;;;;;3.00;1.27;;;;;;;;;;5034955;28;20049;-74
2021/12/06 00:55:26;;;;;;;2.83;1.15;;;;;;;;;;5034779;28;20459;-72
2021/12/06 00:57:54;;;;;;;2.42;1.00;;;;;;;;;;5034638;28;20025;-73
2021/12/06 01:00:30;;;;;;;1.80;0.95;;;;;;;;;;5034571;28;20481;-74
2021/12/06 01:02:57;;;;;;;2.55;1.08;;;;;;;;;;5034496;28;20029;-72
2021/12/06 01:05:24;;;;;;;2.70;1.05;;;;;;;;;;5034797;28;20064;-76
2021/12/06 01:07:53;;;;;;;2.30;1.02;;;;;;;;;;5034692;28;20026;-72
2021/12/06 01:10:19;;;;;;;2.80;1.20;;;;;;;;;;5034455;28;20144;-74
2021/12/06 01:12:45;;;;;;;1.90;1.00;;;;;;;;;;5034607;28;20347;-75
2021/12/06 01:15:11;;;;;;;2.60;1.02;;;;;;;;;;5034118;28;21340;-73
2021/12/06 01:17:36;;;;;;;2.33;1.00;;;;;;;;;;5034229;28;20101;-74
2021/12/06 01:20:09;;;;;;;2.78;1.10;;;;;;;;;;5034398;28;20033;-73
2021/12/06 01:23:12;;;;;;;2.50;1.10;;;;;;;;;;5034029;28;20029;-73
2021/12/06 01:41:23;;;;;;;3.33;1.30;;;;;;;;;;5033898;28;20032;-74
2021/12/06 01:44:15;;;;;;;5.13;1.63;;;;;;;;;;5034258;28;20083;-72
2021/12/06 01:47:09;;;;;;;3.97;1.40;;;;;;;;;;5034059;28;20033;-74
2021/12/06 01:49:38;;;;;;;3.53;1.38;;;;;;;;;;5027996;28;20112;-73
2021/12/06 01:52:09;;;;;;;3.60;1.38;;;;;;;;;;5065941;28;20037;-72
2021/12/06 01:54:35;;;;;;;3.75;1.40;;;;;;;;;;5033692;28;20057;-73
2021/12/06 01:57:01;;;;;;;4.43;1.63;;;;;;;;;;5033712;28;20053;-75
2021/12/06 01:59:26;;;;;;;4.28;1.50;;;;;;;;;;5033775;28;20049;-74
2021/12/06 02:01:53;;;;;;;5.22;1.70;;;;;;;;;;5033024;28;20410;-72
2021/12/06 02:04:20;;;;;;;4.43;1.63;;;;;;;;;;5033821;28;20060;-74
2021/12/06 02:06:46;;;;;;;4.15;1.60;;;;;;;;;;5033720;28;20034;-74
2021/12/06 02:09:15;;;;;;;3.40;1.70;;;;;;;;;;5033473;28;20481;-74
2021/12/06 02:11:41;;;;;;;3.65;1.60;;;;;;;;;;5033602;28;20022;-73
2021/12/06 02:17:04;;;;;;;4.47;1.50;;;;;;;;;;5033695;28;20083;-73
2021/12/06 02:19:31;;;;;;;4.97;1.70;;;;;;;;;;5033226;28;20437;-74
2021/12/06 02:21:57;;;;;;;3.80;1.50;;;;;;;;;;5032142;28;20033;-74
2021/12/06 02:24:23;;;;;;;3.97;1.52;;;;;;;;;;5033413;28;20509;-73
2021/12/06 02:26:51;;;;;;;5.45;1.50;;;;;;;;;;5033326;28;20083;-73
2021/12/06 02:29:18;;;;;;;4.32;1.70;;;;;;;;;;5033166;28;20057;-74
2021/12/06 02:31:44;;;;;;;5.60;1.40;;;;;;;;;;5028796;28;20033;-73
2021/12/06 02:34:10;;;;;;;4.78;1.67;;;;;;;;;;5033124;28;20382;-72
2021/12/06 02:36:36;;;;;;;2.53;1.42;;;;;;;;;;5033363;28;20068;-74
2021/12/06 02:39:04;;;;;;;3.15;1.30;;;;;;;;;;5033505;28;20355;-74
2021/12/06 02:41:31;;;;;;;2.60;1.20;;;;;;;;;;5033325;28;20029;-74
2021/12/06 02:43:56;;;;;;;3.90;1.33;;;;;;;;;;5033157;28;20029;-74
2021/12/06 02:46:23;;;;;;;4.78;1.70;;;;;;;;;;5033246;28;20589;-74
2021/12/06 02:48:49;;;;;;;2.92;1.30;;;;;;;;;;5032137;28;20025;-74
2021/12/06 02:51:17;;;;;;;3.20;1.35;;;;;;;;;;5032711;28;20467;-74
2021/12/06 02:53:43;;;;;;;2.28;1.23;;;;;;;;;;5033114;28;20029;-72
2021/12/06 02:56:28;;;;;;;3.63;1.40;;;;;;;;;;5032865;28;20025;-74
2021/12/06 02:58:57;;;;;;;3.83;1.27;;;;;;;;;;5033254;28;20037;-75
2021/12/06 03:01:32;;;;;;;3.38;1.40;;;;;;;;;;5032829;28;20097;-74
2021/12/06 03:03:59;;;;;;;3.05;1.30;;;;;;;;;;5033165;28;20413;-74
2021/12/06 03:06:26;;;;;;;4.57;1.40;;;;;;;;;;5033112;28;20029;-73
2021/12/06 03:09:16;;;;;;;4.57;1.58;;;;;;;;;;5033079;28;20127;-73
2021/12/06 03:11:48;;;;;;;2.80;1.40;;;;;;;;;;5033013;28;20085;-73
2021/12/06 03:14:22;;;;;;;3.70;1.50;;;;;;;;;;5035846;28;20050;-73
2021/12/06 03:16:48;;;;;;;3.70;1.40;;;;;;;;;;5036708;28;20163;-74
2021/12/06 03:19:14;;;;;;;2.85;1.40;;;;;;;;;;5036530;28;20030;-75
2021/12/06 03:21:40;;;;;;;2.85;1.20;;;;;;;;;;5036761;28;20377;-73
2021/12/06 03:24:06;;;;;;;2.20;1.15;;;;;;;;;;5036481;28;20506;-72
2021/12/06 03:26:33;;;;;;;2.60;1.08;;;;;;;;;;5035627;28;20044;-74
2021/12/06 03:29:00;;;;;;;3.65;1.17;;;;;;;;;;5036543;28;20059;-73
2021/12/06 03:31:26;;;;;;;3.75;1.20;;;;;;;;;;5031334;28;20446;-74
2021/12/06 03:33:55;;;;;;;3.17;1.27;;;;;;;;;;5036416;28;20033;-72
2021/12/06 03:36:23;;;;;;;4.32;1.30;;;;;;;;;;5036441;28;20030;-73
2021/12/06 03:38:49;;;;;;;2.92;1.10;;;;;;;;;;5036281;28;20083;-72
2021/12/06 03:41:19;;;;;;;1.92;1.05;;;;;;;;;;5035913;28;20060;-72
2021/12/06 03:43:45;;;;;;;3.75;1.10;;;;;;;;;;5036120;28;20481;-74
2021/12/06 03:46:14;;;;;;;2.70;1.10;;;;;;;;;;5036092;28;20040;-72
2021/12/06 03:48:40;;;;;;;2.08;1.00;;;;;;;;;;5036192;28;20029;-72
2021/12/06 03:51:07;;;;;;;3.22;1.20;;;;;;;;;;5034998;28;20033;-73
2021/12/06 03:53:33;;;;;;;2.75;1.10;;;;;;;;;;5035160;28;20029;-73
2021/12/06 03:56:00;;;;;;;2.38;1.10;;;;;;;;;;5035950;28;20029;-72
2021/12/06 03:58:26;;;;;;;2.30;0.98;;;;;;;;;;5036102;28;20037;-72
2021/12/06 04:00:53;;;;;;;1.48;0.90;;;;;;;;;;5035951;28;20040;-73
2021/12/06 04:03:20;;;;;;;2.75;0.95;;;;;;;;;;5035625;28;20025;-74
2021/12/06 04:05:46;;;;;;;3.10;1.00;;;;;;;;;;5035629;28;20022;-74
2021/12/06 04:08:12;;;;;;;4.05;1.10;;;;;;;;;;5035750;28;20035;-74
2021/12/06 04:10:38;;;;;;;3.42;1.20;;;;;;;;;;5035801;28;20073;-74
2021/12/06 04:13:04;;;;;;;3.08;0.98;;;;;;;;;;5035199;28;20091;-74
2021/12/06 04:15:30;;;;;;;2.08;0.90;;;;;;;;;;5051216;28;20033;-74
2021/12/06 04:17:58;;;;;;;2.15;0.80;;;;;;;;;;5034687;28;20029;-74
2021/12/06 04:20:24;;;;;;;2.80;0.90;;;;;;;;;;5035480;28;20029;-72
2021/12/06 04:22:50;;;;;;;3.20;0.88;;;;;;;;;;5035367;28;20383;-74
2021/12/06 04:25:18;;;;;;;3.67;0.95;;;;;;;;;;5034056;28;20030;-73
2021/12/06 04:27:51;;;;;;;2.20;1.05;;;;;;;;;;5035464;28;20084;-73
2021/12/06 04:30:17;;;;;;;2.45;1.08;;;;;;;;;;5029914;28;20041;-73
2021/12/06 04:32:43;;;;;;;2.33;1.02;;;;;;;;;;5035184;28;20075;-73
2021/12/06 04:35:09;;;;;;;1.35;0.80;;;;;;;;;;5034950;28;20025;-73
2021/12/06 04:37:35;;;;;;;1.95;1.00;;;;;;;;;;5035372;28;20482;-74
2021/12/06 04:40:02;;;;;;;1.45;0.70;;;;;;;;;;5035247;28;20094;-74
2021/12/06 04:42:27;;;;;;;1.42;0.80;;;;;;;;;;5034803;28;20031;-74
2021/12/06 04:44:53;;;;;;;1.70;0.80;;;;;;;;;;5035195;28;20494;-73
2021/12/06 04:47:19;;;;;;;2.80;0.90;;;;;;;;;;5035028;28;20021;-73
2021/12/06 04:49:44;;;;;;;1.33;0.80;;;;;;;;;;5035033;28;20037;-75
2021/12/06 04:52:12;;;;;;;1.85;0.80;;;;;;;;;;5034662;28;20183;-74
2021/12/06 04:54:43;;;;;;;1.35;0.60;;;;;;;;;;5034947;28;20374;-74
2021/12/06 04:57:25;;;;;;;1.85;0.90;;;;;;;;;;5034818;28;20047;-73
2021/12/06 04:59:59;;;;;;;2.63;0.88;;;;;;;;;;5034869;28;20033;-74
2021/12/06 05:02:31;;;;;;;1.73;0.80;;;;;;;;;;5034272;28;20421;-72
2021/12/06 05:04:59;;;;;;;1.45;0.70;;;;;;;;;;5035031;28;20039;-74
2021/12/06 05:07:36;;;;;;;2.28;0.80;;;;;;;;;;5034299;28;20056;-74
2021/12/06 05:10:05;;;;;;;4.50;0.90;;;;;;;;;;5034769;28;20026;-72
2021/12/06 05:12:31;;;;;;;1.52;0.88;;;;;;;;;;5034356;28;20040;-74
2021/12/06 05:14:58;;;;;;;3.80;0.80;;;;;;;;;;5034310;28;20427;-74
2021/12/06 05:17:24;;;;;;;2.97;0.80;;;;;;;;;;5034215;28;20532;-74
2021/12/06 05:19:50;;;;;;;3.60;0.95;;;;;;;;;;5034458;28;20063;-75
2021/12/06 05:22:16;;;;;;;2.70;0.90;;;;;;;;;;5034078;28;20466;-74
2021/12/06 05:24:42;;;;;;;2.55;0.77;;;;;;;;;;5034375;28;20148;-75
2021/12/06 05:27:08;;;;;;;2.30;1.00;;;;;;;;;;5034076;28;20040;-73
2021/12/06 05:29:35;;;;;;;1.58;0.80;;;;;;;;;;5032850;28;20068;-73
2021/12/06 05:32:01;;;;;;;5.68;1.00;;;;;;;;;;5029948;28;20033;-75
2021/12/06 05:34:38;;;;;;;4.05;1.05;;;;;;;;;;5033861;28;20120;-75
2021/12/06 05:37:09;;;;;;;3.67;1.13;;;;;;;;;;5032557;28;20044;-72
2021/12/06 05:39:35;;;;;;;2.25;0.90;;;;;;;;;;5034237;28;20048;-73
2021/12/06 05:42:05;;;;;;;3.67;1.00;;;;;;;;;;5033801;28;20390;-73
2021/12/06 05:44:31;;;;;;;2.70;0.80;;;;;;;;;;5033823;28;20175;-75
2021/12/06 05:46:58;;;;;;;6.32;1.10;;;;;;;;;;5033999;28;20036;-73
2021/12/06 05:49:23;;;;;;;5.88;0.98;;;;;;;;;;5033600;28;20220;-74
2021/12/06 05:51:50;;;;;;;4.50;1.20;;;;;;;;;;5033887;28;20378;-74
2021/12/06 05:54:16;;;;;;;2.13;1.00;;;;;;;;;;5033736;28;20029;-72
2021/12/06 05:56:42;;;;;;;3.00;1.02;;;;;;;;;;5033897;28;20037;-75
2021/12/06 05:59:08;;;;;;;1.85;0.98;;;;;;;;;;5033414;28;20033;-73
2021/12/06 06:01:33;;;;;;;2.60;1.00;;;;;;;;;;5033936;28;20390;-73
2021/12/06 06:04:01;;;;;;;8.43;1.20;;;;;;;;;;5032701;28;20060;-73
2021/12/06 06:06:31;;;;;;;4.80;1.08;;;;;;;;;;5033372;28;20033;-74
2021/12/06 06:08:58;;;;;;;1.90;0.90;;;;;;;;;;5033509;28;20044;-73
2021/12/06 06:11:24;;;;;;;4.97;1.10;;;;;;;;;;5033416;28;20041;-73
2021/12/06 06:13:49;;;;;;;3.45;1.00;;;;;;;;;;5033299;28;20447;-73
2021/12/06 06:16:19;;;;;;;3.63;1.20;;;;;;;;;;5032452;28;20045;-74
2021/12/06 06:18:45;;;;;;;3.97;1.30;;;;;;;;;;5032544;28;20043;-75
2021/12/06 06:21:11;;;;;;;4.47;1.38;;;;;;;;;;5033158;28;20121;-74
2021/12/06 06:23:36;;;;;;;6.43;1.67;;;;;;;;;;5033415;28;20104;-74
2021/12/06 06:26:02;;;;;;;4.88;1.60;;;;;;;;;;5033456;28;20026;-76
2021/12/06 06:28:28;;;;;;;3.50;1.40;;;;;;;;;;5033151;28;20040;-72
2021/12/06 06:30:54;;;;;;;4.60;1.77;;;;;;;;;;5026943;28;20029;-73
2021/12/06 06:33:21;;;;;;;4.35;1.38;;;;;;;;;;5033514;28;20037;-72
2021/12/06 06:35:46;;;;;;;4.55;1.40;;;;;;;;;;5033104;28;20107;-73
2021/12/06 06:38:13;;;;;;;6.78;1.65;;;;;;;;;;5033195;28;20414;-72
2021/12/06 06:40:38;;;;;;;6.10;1.70;;;;;;;;;;5033158;28;20033;-74
2021/12/06 06:43:04;;;;;;;4.88;1.83;;;;;;;;;;5033129;28;20036;-75
2021/12/06 06:45:30;;;;;;;5.43;1.95;;;;;;;;;;5033175;28;20095;-73
2021/12/06 06:47:56;;;;;;;9.38;2.17;;;;;;;;;;5036141;28;20076;-75
2021/12/06 06:50:22;;;;;;;10.73;2.63;;;;;;;;;;5037061;28;20473;-74
2021/12/06 06:52:49;;;;;;;9.95;3.08;;;;;;;;;;5037160;28;20029;-75
2021/12/06 06:55:15;;;;;;;12.20;4.00;;;;;;;;;;5037059;28;20470;-74
2021/12/06 06:57:43;;;;;;;11.43;2.97;;;;;;;;;;5037168;28;20470;-74
2021/12/06 07:00:12;;;;;;;7.78;2.50;;;;;;;;;;5036930;28;20029;-73
2021/12/06 07:02:38;;;;;;;8.70;2.90;;;;;;;;;;5037048;28;20060;-72
2021/12/06 07:05:05;;;;;;;15.95;3.38;;;;;;;;;;5036786;28;20139;-71
2021/12/06 07:07:31;;;;;;;10.00;2.80;;;;;;;;;;5036794;28;20033;-71
2021/12/06 07:09:56;;;;;;;10.13;2.90;;;;;;;;;;5036712;28;20048;-70
2021/12/06 07:12:22;;;;;;;10.40;2.80;;;;;;;;;;5036797;28;20108;-72
2021/12/06 07:14:48;;;;;;;10.15;2.42;;;;;;;;;;5036536;28;20049;-72
2021/12/06 07:17:15;;;;;;;9.52;2.30;;;;;;;;;;5034822;28;20034;-71
2021/12/06 07:19:41;;;;;;;10.90;2.42;;;;;;;;;;5035441;28;20029;-74
2021/12/06 07:22:07;;;;;;;8.60;2.50;;;;;;;;;;5036150;28;20084;-71
2021/12/06 07:24:33;;;;;;;8.50;2.08;;;;;;;;;;5035819;28;20025;-69
2021/12/06 07:26:59;;;;;;;6.40;1.98;;;;;;;;;;5035582;28;20032;-70
2021/12/06 07:29:25;;;;;;;5.38;2.00;;;;;;;;;;5034252;28;20041;-71
2021/12/06 07:31:51;;;;;;;6.80;1.83;;;;;;;;;;5028126;28;20040;-70
2021/12/06 07:34:17;;;;;;;4.25;2.00;;;;;;;;;;5035885;28;20512;-70
2021/12/06 07:36:43;;;;;;;8.82;2.30;;;;;;;;;;5035605;28;20032;-71
2021/12/06 07:39:10;;;;;;;6.03;1.90;;;;;;;;;;5036332;28;20036;-70
2021/12/06 07:41:36;;;;;;;6.88;2.17;;;;;;;;;;5036040;28;20040;-71
2021/12/06 07:44:03;;;;;;;4.40;1.58;;;;;;;;;;5033370;28;20033;-71
2021/12/06 07:46:29;;;;;;;9.88;1.60;;;;;;;;;;5035386;28;20470;-72
2021/12/06 07:48:55;;;;;;;8.98;1.50;;;;;;;;;;5035343;28;20043;-70
2021/12/06 07:51:22;;;;;;;11.73;2.25;;;;;;;;;;5035065;28;20112;-71
2021/12/06 07:53:48;;;;;;;12.50;2.05;;;;;;;;;;5035473;28;20033;-70
2021/12/06 07:56:13;;;;;;;7.40;1.70;;;;;;;;;;5033020;28;20044;-71
2021/12/06 07:58:39;;;;;;;4.95;1.45;;;;;;;;;;5033202;28;20103;-71
2021/12/06 08:01:05;;;;;;;4.35;1.90;;;;;;;;;;5033558;28;20390;-72
2021/12/06 08:03:31;;;;;;;7.22;2.78;;;;;;;;;;5035980;28;20117;-71
2021/12/06 08:05:58;;;;;;;5.85;1.92;;;;;;;;;;5034528;28;20108;-71
2021/12/06 08:08:28;;;;;;;4.80;1.60;;;;;;;;;;5035630;28;20479;-71
2021/12/06 08:10:58;;;;;;;5.03;1.50;;;;;;;;;;5035608;28;20471;-73
2021/12/06 08:13:27;;;;;;;3.38;1.33;;;;;;;;;;5035204;28;20129;-72
2021/12/06 08:15:55;;;;;;;3.65;1.63;;;;;;;;;;5035714;28;20034;-71
2021/12/06 08:18:22;;;;;;;2.28;1.30;;;;;;;;;;5034960;28;20481;-71
2021/12/06 08:20:48;;;;;;;2.95;1.40;;;;;;;;;;5035329;28;20086;-71
2021/12/06 08:23:15;;;;;;;5.63;1.92;;;;;;;;;;5035558;28;20025;-71
2021/12/06 08:25:46;;;;;;;5.75;2.15;;;;;;;;;;5033348;28;20026;-73
2021/12/06 08:28:13;;;;;;;5.60;2.22;;;;;;;;;;5035170;28;20112;-73
2021/12/06 08:30:38;;;;;;;5.82;2.50;;;;;;;;;;5034505;28;20026;-70
2021/12/06 08:33:06;;;;;;;4.90;2.10;;;;;;;;;;5034596;28;20048;-71
2021/12/06 08:35:34;;;;;;;3.33;1.60;;;;;;;;;;5031310;28;20112;-71
2021/12/06 08:38:00;;;;;;;4.00;1.92;;;;;;;;;;5034406;28;20025;-72
2021/12/06 08:40:28;;;;;;;4.03;1.80;;;;;;;;;;5034073;28;20087;-71
2021/12/06 08:42:54;;;;;;;6.55;1.88;;;;;;;;;;5033431;28;20037;-70
2021/12/06 08:45:21;;;;;;;3.53;2.03;;;;;;;;;;5034444;28;20155;-71
2021/12/06 08:47:47;;;;;;;5.45;2.20;;;;;;;;;;5033738;28;20056;-72
2021/12/06 08:50:18;;;;;;;9.43;2.38;;;;;;;;;;5033012;28;20131;-71
2021/12/06 08:52:44;;;;;;;6.95;2.40;;;;;;;;;;5033678;28;20029;-72
2021/12/06 08:55:11;;;;;;;8.80;3.67;;;;;;;;;;5034287;28;20032;-72
2021/12/06 08:57:37;;;;;;;8.27;2.60;;;;;;;;;;5034121;28;20122;-72
2021/12/06 09:00:19;;;;;;;11.60;5.07;;;;;;;;;;5034442;28;20513;-72
2021/12/06 09:02:45;;;;;;;6.63;3.33;;;;;;;;;;5034672;28;20034;-72
2021/12/06 09:05:11;;;;;;;6.97;2.58;;;;;;;;;;5033655;28;20039;-72
2021/12/06 09:07:37;;;;;;;5.85;2.97;;;;;;;;;;5032879;28;20029;-71
2021/12/06 09:10:04;;;;;;;9.23;2.88;;;;;;;;;;5032652;28;20033;-72
2021/12/06 09:12:31;;;;;;;7.55;3.33;;;;;;;;;;5032374;28;20033;-71
2021/12/06 09:15:00;;;;;;;14.20;4.63;;;;;;;;;;5032482;28;20551;-72
2021/12/06 09:17:27;;;;;;;7.85;3.42;;;;;;;;;;5032490;28;20033;-71
2021/12/06 09:19:53;;;;;;;7.72;3.15;;;;;;;;;;5032187;28;20028;-72
2021/12/06 09:22:20;;;;;;;11.43;4.07;;;;;;;;;;5032589;28;20029;-71
2021/12/06 09:24:47;;;;;;;14.82;6.32;;;;;;;;;;5034204;28;20025;-71
2021/12/06 09:27:13;;;;;;;13.38;5.90;;;;;;;;;;5034294;28;20060;-70
2021/12/06 09:29:39;;;;;;;12.18;6.03;;;;;;;;;;5032878;28;20025;-71
2021/12/06 09:32:07;;;;;;;11.77;5.75;;;;;;;;;;5033895;28;20105;-71
2021/12/06 09:34:34;;;;;;;10.35;5.45;;;;;;;;;;5033975;28;20029;-71
2021/12/06 09:37:00;;;;;;;10.63;4.75;;;;;;;;;;5034187;28;20029;-71
2021/12/06 09:39:26;;;;;;;10.52;4.70;;;;;;;;;;5033901;28;20104;-71
2021/12/06 09:41:53;;;;;;;11.07;5.28;;;;;;;;;;5033959;28;20049;-71
2021/12/06 09:44:18;;;;;;;9.82;4.70;;;;;;;;;;5033811;28;20029;-70
2021/12/06 09:46:46;;;;;;;9.98;3.90;;;;;;;;;;5032886;28;20083;-71
2021/12/06 09:49:16;;;;;;;7.13;3.20;;;;;;;;;;5034042;28;20025;-70
2021/12/06 09:51:45;;;;;;;7.40;3.38;;;;;;;;;;5033655;28;20390;-69
2021/12/06 09:54:12;;;;;;;11.00;4.57;;;;;;;;;;5033580;28;20104;-70
2021/12/06 09:56:42;;;;;;;13.90;3.75;;;;;;;;;;5032877;28;20052;-70
2021/12/06 09:59:11;;;;;;;6.43;3.33;;;;;;;;;;5033866;28;20051;-69
2021/12/06 10:01:47;;;;;;;6.93;3.53;;;;;;;;;;5033490;28;20040;-70
2021/12/06 10:04:15;;;;;;;8.80;4.13;;;;;;;;;;5033586;28;20466;-70
2021/12/06 10:06:41;;;;;;;9.95;4.38;;;;;;;;;;5033539;28;20504;-70
2021/12/06 10:09:10;;;;;;;7.40;3.78;;;;;;;;;;5033511;28;20034;-70
2021/12/06 10:11:37;;;;;;;7.40;3.00;;;;;;;;;;5033513;28;20061;-70
2021/12/06 10:14:03;;;;;;;9.05;3.40;;;;;;;;;;5033098;28;20053;-71
2021/12/06 10:16:29;;;;;;;12.43;4.32;;;;;;;;;;5033402;28;20040;-71
2021/12/06 10:18:55;;;;;;;9.68;4.07;;;;;;;;;;5033503;28;20037;-70
2021/12/06 10:21:27;;;;;;;13.63;4.85;;;;;;;;;;5032846;28;20044;-71
2021/12/06 10:23:54;;;;;;;8.27;4.03;;;;;;;;;;5033615;28;20391;-70
2021/12/06 10:26:24;;;;;;;13.45;4.40;;;;;;;;;;5032988;28;20104;-71
2021/12/06 10:29:00;;;;;;;9.27;3.28;;;;;;;;;;5033558;28;20052;-70
2021/12/06 10:31:27;;;;;;;6.85;3.13;;;;;;;;;;5025117;28;20065;-73
2021/12/06 10:33:54;;;;;;;9.75;3.63;;;;;;;;;;5033432;28;20037;-72
2021/12/06 10:36:20;;;;;;;14.88;4.30;;;;;;;;;;5032282;28;20030;-71
2021/12/06 10:38:53;;;;;;;4.20;2.10;;;;;;;;;;5033234;28;20037;-70
2021/12/06 10:41:22;;;;;;;7.10;2.53;;;;;;;;;;5031001;28;20108;-70
2021/12/06 10:44:00;;;;;;;6.32;2.60;;;;;;;;;;5033049;28;20044;-70
2021/12/06 10:46:28;;;;;;;5.25;2.30;;;;;;;;;;5027222;28;20026;-70
2021/12/06 10:48:58;;;;;;;7.68;2.55;;;;;;;;;;5033006;28;20029;-71
2021/12/06 10:51:24;;;;;;;7.53;2.80;;;;;;;;;;5033027;28;20171;-70
2021/12/06 10:54:02;;;;;;;7.05;2.75;;;;;;;;;;5032186;28;20108;-70
2021/12/06 10:56:41;;;;;;;6.88;2.40;;;;;;;;;;5033452;28;20025;-70
2021/12/06 10:59:21;;;;;;;6.57;2.42;;;;;;;;;;5032055;28;20110;-70
2021/12/06 11:01:48;;;;;;;;;;;;;;;;;;5031672;28;20044;-71
2021/12/06 11:04:16;;;;;;;8.25;2.20;;;;;;;;;;5031064;28;19913;-69
2021/12/06 11:06:45;;;;;;;5.85;2.33;;;;;;;;;;5031116;28;20033;-70
2021/12/06 11:09:14;;;;;;;5.28;2.00;;;;;;;;;;5030658;28;20033;-70
2021/12/06 11:11:53;;;;;;;5.43;1.88;;;;;;;;;;5031084;28;20037;-71
2021/12/06 11:14:25;;;;;;;4.00;1.90;;;;;;;;;;5030921;28;20046;-69
2021/12/06 11:16:55;;;;;;;2.95;1.42;;;;;;;;;;5033005;28;20041;-70
2021/12/06 11:19:23;;;;;;;3.05;1.30;;;;;;;;;;5032724;28;20437;-70
2021/12/06 11:21:50;;;;;;;2.85;1.20;;;;;;;;;;5032849;28;20041;-71
2021/12/06 11:24:26;;;;;;;2.83;1.00;;;;;;;;;;5032779;28;20041;-69
2021/12/06 11:27:05;;;;;;;2.75;1.20;;;;;;;;;;5032915;28;20029;-69
2021/12/06 11:29:37;;;;;;;2.97;1.15;;;;;;;;;;5032662;28;20033;-70
2021/12/06 11:32:13;;;;;;;2.13;1.02;;;;;;;;;;5032569;28;20467;-69
2021/12/06 11:35:00;;;;;;;2.50;1.10;;;;;;;;;;5035190;28;20025;-70
2021/12/06 11:37:32;;;;;;;4.72;1.50;;;;;;;;;;5036293;28;20040;-70
2021/12/06 11:40:10;;;;;;;5.38;1.38;;;;;;;;;;5036184;28;20071;-70
2021/12/06 11:43:03;;;;;;;6.05;1.17;;;;;;;;;;5036276;28;20382;-70
2021/12/06 11:45:40;;;;;;;4.75;1.52;;;;;;;;;;5036664;28;20044;-70
2021/12/06 11:48:08;;;;;;;4.22;1.15;;;;;;;;;;5036199;28;20025;-70
2021/12/06 11:50:39;;;;;;;2.85;1.20;;;;;;;;;;5036009;28;20083;-71
2021/12/06 11:53:07;;;;;;;2.65;1.30;;;;;;;;;;5035683;28;20493;-70
2021/12/06 11:55:34;;;;;;;4.45;1.45;;;;;;;;;;5036124;28;20087;-70
2021/12/06 11:58:00;;;;;;;4.30;1.90;;;;;;;;;;5035928;28;20059;-70
2021/12/06 12:00:27;;;;;;;11.73;6.57;;;;;;;;;;5036071;28;20064;-70
2021/12/06 12:02:55;;;;;;;11.82;5.22;;;;;;;;;;5035768;28;20025;-70
2021/12/06 12:05:35;;;;;;;6.88;3.03;;;;;;;;;;5035663;28;20037;-70
2021/12/06 12:08:10;;;;;;;5.20;2.30;;;;;;;;;;5035757;28;20374;-71
2021/12/06 12:10:38;;;;;;;4.90;1.25;;;;;;;;;;5036022;28;20033;-70
2021/12/06 12:13:06;;;;;;;4.55;2.05;;;;;;;;;;5035207;28;20423;-70
2021/12/06 12:15:33;;;;;;;7.50;2.78;;;;;;;;;;5035719;28;20356;-70
2021/12/06 12:17:59;;;;;;;2.88;1.20;;;;;;;;;;5035583;28;20030;-70
2021/12/06 12:20:26;;;;;;;3.90;1.40;;;;;;;;;;5036096;28;20029;-70
2021/12/06 12:22:55;;;;;;;9.13;2.63;;;;;;;;;;5035626;28;20044;-70
2021/12/06 12:25:34;;;;;;;3.20;1.45;;;;;;;;;;5035476;28;20116;-70
2021/12/06 12:30:33;;;;;;;3.53;1.23;;;;;;;;;;5035699;28;20116;-71
2021/12/06 12:33:03;;;;;;;4.10;1.13;;;;;;;;;;5035252;28;20576;-70
2021/12/06 12:35:30;;;;;;;4.85;1.50;;;;;;;;;;5027680;28;20033;-71
2021/12/06 12:37:59;;;;;;;4.45;1.40;;;;;;;;;;5035297;28;20120;-71
2021/12/06 12:40:27;;;;;;;3.33;1.30;;;;;;;;;;5034994;28;20090;-70
2021/12/06 12:42:57;;;;;;;3.72;1.30;;;;;;;;;;5035113;28;20034;-70
2021/12/06 12:45:23;;;;;;;3.72;1.23;;;;;;;;;;5034674;28;20048;-70
2021/12/06 12:47:55;;;;;;;6.07;2.05;;;;;;;;;;5035086;28;20478;-70
2021/12/06 12:50:22;;;;;;;2.00;1.00;;;;;;;;;;5035165;28;20040;-70
2021/12/06 12:52:55;;;;;;;3.78;1.10;;;;;;;;;;5034954;28;20033;-70
2021/12/06 12:55:28;;;;;;;3.17;1.20;;;;;;;;;;5034524;28;20095;-69
2021/12/06 12:58:10;;;;;;;2.30;0.95;;;;;;;;;;5034892;28;20124;-70
2021/12/06 13:00:58;;;;;;;3.72;0.95;;;;;;;;;;5034771;28;20041;-69
2021/12/06 13:03:41;;;;;;;2.25;1.05;;;;;;;;;;5031491;28;20029;-70
2021/12/06 13:06:31;;;;;;;3.60;1.15;;;;;;;;;;5028524;28;20067;-71
2021/12/06 13:09:03;;;;;;;2.97;1.25;;;;;;;;;;5028806;28;20091;-72
2021/12/06 13:11:53;;;;;;;5.00;1.00;;;;;;;;;;5033910;28;20421;-72
2021/12/06 13:14:31;;;;;;;3.55;1.50;;;;;;;;;;5033760;28;20049;-71
2021/12/06 13:17:05;;;;;;;1.88;0.80;;;;;;;;;;5030543;28;20030;-72
2021/12/06 13:19:53;;;;;;;1.85;0.68;;;;;;;;;;5032975;28;20117;-71
2021/12/06 13:22:30;;;;;;;2.25;0.70;;;;;;;;;;5033074;28;20520;-71
2021/12/06 13:24:58;;;;;;;3.25;0.90;;;;;;;;;;5034332;28;20040;-71
2021/12/06 13:27:37;;;;;;;2.40;1.00;;;;;;;;;;5033968;28;20029;-70
2021/12/06 13:30:25;;;;;;;2.03;0.80;;;;;;;;;;5033887;28;20029;-70
2021/12/06 13:32:55;;;;;;;2.78;0.60;;;;;;;;;;5033984;28;20049;-70
2021/12/06 13:35:26;;;;;;;2.50;1.00;;;;;;;;;;5034089;28;20037;-71
2021/12/06 13:38:02;;;;;;;;;;;;;;;;;;5034554;28;20475;-72
2021/12/06 13:40:29;;;;;;;1.60;0.80;;;;;;;;;;5034018;28;19913;-74
2021/12/06 13:42:55;;;;;;;2.90;0.70;;;;;;;;;;5033470;28;20025;-72
2021/12/06 13:45:25;;;;;;;1.65;0.80;;;;;;;;;;5032759;28;20048;-72
2021/12/06 13:48:12;;;;;;;1.87;0.70;;;;;;;;;;5033528;28;20091;-74
2021/12/06 13:50:38;;;;;;;2.75;1.05;;;;;;;;;;5033904;28;20613;-73
2021/12/06 13:53:20;;;;;;;1.73;0.80;;;;;;;;;;5033670;28;20040;-72
2021/12/06 13:55:51;;;;;;;2.45;1.17;;;;;;;;;;5033381;28;20036;-73
2021/12/06 13:58:17;;;;;;;1.55;0.80;;;;;;;;;;5033737;28;20398;-72
2021/12/06 14:00:46;;;;;;;1.75;0.52;;;;;;;;;;5033735;28;20033;-73
2021/12/06 14:03:16;;;;;;;24.35;7.80;;;;;;;;;;5032787;28;20036;-74
2021/12/06 14:05:43;;;;;;;;;;;;;;;;;;5034278;28;20029;-73
2021/12/06 14:08:14;;;;;;;3.65;1.05;;;;;;;;;;5033721;28;19913;-75
2021/12/06 14:10:39;;;;;;;9.07;2.88;;;;;;;;;;5065830;28;20482;-72
2021/12/06 14:13:07;;;;;;;7.32;2.50;;;;;;;;;;5032857;28;20473;-74
2021/12/06 14:18:17;;;;;;;2.80;1.10;;;;;;;;;;5032857;28;20049;-73
2021/12/06 14:20:53;;;;;;;5.05;0.80;;;;;;;;;;5033492;28;20056;-72
2021/12/06 14:23:20;;;;;;;1.55;0.68;;;;;;;;;;5033286;28;20061;-74
2021/12/06 14:25:55;;;;;;;1.88;0.80;;;;;;;;;;5033387;28;20029;-73
2021/12/06 14:28:24;;;;;;;8.45;3.42;;;;;;;;;;5033286;28;20112;-73
2021/12/06 14:30:52;;;;;;;8.38;3.95;;;;;;;;;;5033122;28;20045;-75
2021/12/06 14:33:19;;;;;;;5.82;2.33;;;;;;;;;;5033488;28;20413;-76
2021/12/06 14:35:46;;;;;;;5.80;1.60;;;;;;;;;;5033185;28;20036;-74
2021/12/06 14:38:14;;;;;;;5.22;1.92;;;;;;;;;;5033366;28;20490;-73
2021/12/06 14:40:42;;;;;;;2.83;1.20;;;;;;;;;;5033395;28;20546;-75
2021/12/06 14:43:13;;;;;;;2.50;1.10;;;;;;;;;;5032860;28;20034;-73
2021/12/06 14:45:39;;;;;;;8.43;1.45;;;;;;;;;;5033539;28;20072;-75
2021/12/06 14:48:10;;;;;;;2.85;1.40;;;;;;;;;;5033201;28;20033;-72
2021/12/06 14:50:49;;;;;;;9.48;3.40;;;;;;;;;;5033156;28;20029;-74
2021/12/06 14:53:23;;;;;;;7.25;3.33;;;;;;;;;;5033151;28;20048;-74
2021/12/06 14:55:58;;;;;;;10.32;4.43;;;;;;;;;;5032964;28;20462;-73
2021/12/06 14:58:35;;;;;;;7.43;3.40;;;;;;;;;;5026309;28;20040;-74
2021/12/06 15:01:06;;;;;;;10.70;3.75;;;;;;;;;;5032978;28;20029;-74
2021/12/06 15:03:38;;;;;;;;;;;;;;;;;;5033494;28;20467;-72
2021/12/06 15:06:05;;;;;;;12.15;2.88;;;;;;;;;;5065568;28;19942;-75
2021/12/06 15:08:35;;;;;;;8.52;2.30;;;;;;;;;;5035276;28;20036;-75
2021/12/06 15:11:06;;;;;;;9.55;2.75;;;;;;;;;;5036674;28;20034;-74
2021/12/06 15:13:33;;;;;;;4.45;1.50;;;;;;;;;;5036702;28;20056;-73
2021/12/06 15:16:03;;;;;;;6.47;2.30;;;;;;;;;;5036568;28;20064;-73
2021/12/06 15:18:31;;;;;;;5.30;2.33;;;;;;;;;;5036934;28;20056;-73